sensor_id;sensor_type;location;lat;lon;timestamp;P1;durP1;ratioP1;P2;durP2;ratioP2
34565;SDS011;20803;42.676;26.348;2024-02-21T00:00:09;19.63;;;12.33;;
34565;SDS011;20803;42.676;26.348;2024-02-21T00:02:36;17.10;;;11.63;;
34565;SDS011;20803;42.676;26.348;2024-02-21T00:05:02;17.30;;;11.13;;
34565;SDS011;20803;42.676;26.348;2024-02-21T00:07:28;18.47;;;12.13;;
34565;SDS011;20803;42.676;26.348;2024-02-21T00:09:53;16.47;;;10.63;;
34565;SDS011;20803;42.676;26.348;2024-02-21T00:12:19;18.93;;;10.53;;
34565;SDS011;20803;42.676;26.348;2024-02-21T00:14:44;19.30;;;10.07;;
34565;SDS011;20803;42.676;26.348;2024-02-21T00:17:10;17.37;;;10.17;;
34565;SDS011;20803;42.676;26.348;2024-02-21T00:19:35;16.37;;;10.20;;
34565;SDS011;20803;42.676;26.348;2024-02-21T00:22:01;17.23;;;11.13;;
34565;SDS011;20803;42.676;26.348;2024-02-21T00:24:26;16.07;;;10.50;;
34565;SDS011;20803;42.676;26.348;2024-02-21T00:26:53;16.63;;;10.27;;
34565;SDS011;20803;42.676;26.348;2024-02-21T00:29:19;19.77;;;11.70;;
34565;SDS011;20803;42.676;26.348;2024-02-21T00:31:44;15.70;;;10.30;;
34565;SDS011;20803;42.676;26.348;2024-02-21T00:34:10;17.07;;;10.83;;
34565;SDS011;20803;42.676;26.348;2024-02-21T00:36:36;15.80;;;10.57;;
34565;SDS011;20803;42.676;26.348;2024-02-21T00:39:01;17.97;;;11.13;;
34565;SDS011;20803;42.676;26.348;2024-02-21T00:41:27;18.60;;;12.20;;
34565;SDS011;20803;42.676;26.348;2024-02-21T00:43:52;22.83;;;13.53;;
34565;SDS011;20803;42.676;26.348;2024-02-21T00:46:18;22.33;;;14.77;;
34565;SDS011;20803;42.676;26.348;2024-02-21T00:48:43;24.53;;;13.37;;
34565;SDS011;20803;42.676;26.348;2024-02-21T00:51:09;22.00;;;14.60;;
34565;SDS011;20803;42.676;26.348;2024-02-21T00:53:34;24.57;;;16.23;;
34565;SDS011;20803;42.676;26.348;2024-02-21T00:56:03;22.27;;;14.80;;
34565;SDS011;20803;42.676;26.348;2024-02-21T00:58:30;26.87;;;15.60;;
34565;SDS011;20803;42.676;26.348;2024-02-21T01:00:55;23.43;;;15.17;;
34565;SDS011;20803;42.676;26.348;2024-02-21T01:03:21;23.30;;;14.80;;
34565;SDS011;20803;42.676;26.348;2024-02-21T01:05:46;21.60;;;13.03;;
34565;SDS011;20803;42.676;26.348;2024-02-21T01:08:12;22.27;;;13.90;;
34565;SDS011;20803;42.676;26.348;2024-02-21T01:10:37;20.80;;;13.30;;
34565;SDS011;20803;42.676;26.348;2024-02-21T01:13:03;18.83;;;12.03;;
34565;SDS011;20803;42.676;26.348;2024-02-21T01:15:28;20.37;;;12.27;;
34565;SDS011;20803;42.676;26.348;2024-02-21T01:17:54;19.90;;;12.73;;
34565;SDS011;20803;42.676;26.348;2024-02-21T01:20:20;18.30;;;11.90;;
34565;SDS011;20803;42.676;26.348;2024-02-21T01:22:46;15.77;;;12.23;;
34565;SDS011;20803;42.676;26.348;2024-02-21T01:25:12;16.67;;;11.30;;
34565;SDS011;20803;42.676;26.348;2024-02-21T01:27:37;17.63;;;11.13;;
34565;SDS011;20803;42.676;26.348;2024-02-21T01:30:03;18.73;;;12.30;;
34565;SDS011;20803;42.676;26.348;2024-02-21T01:32:29;19.07;;;11.97;;
34565;SDS011;20803;42.676;26.348;2024-02-21T01:34:54;17.40;;;11.73;;
34565;SDS011;20803;42.676;26.348;2024-02-21T01:37:20;18.27;;;11.67;;
34565;SDS011;20803;42.676;26.348;2024-02-21T01:39:46;18.00;;;11.67;;
34565;SDS011;20803;42.676;26.348;2024-02-21T01:42:12;15.70;;;11.20;;
34565;SDS011;20803;42.676;26.348;2024-02-21T01:44:37;23.00;;;13.80;;
34565;SDS011;20803;42.676;26.348;2024-02-21T01:47:03;21.17;;;13.47;;
34565;SDS011;20803;42.676;26.348;2024-02-21T01:49:29;18.70;;;12.20;;
34565;SDS011;20803;42.676;26.348;2024-02-21T01:51:55;20.87;;;12.53;;
34565;SDS011;20803;42.676;26.348;2024-02-21T01:54:21;18.37;;;12.70;;
34565;SDS011;20803;42.676;26.348;2024-02-21T01:56:47;17.77;;;12.30;;
34565;SDS011;20803;42.676;26.348;2024-02-21T01:59:13;19.47;;;13.00;;
34565;SDS011;20803;42.676;26.348;2024-02-21T02:01:41;17.57;;;11.77;;
34565;SDS011;20803;42.676;26.348;2024-02-21T02:04:07;18.20;;;12.00;;
34565;SDS011;20803;42.676;26.348;2024-02-21T02:06:33;18.13;;;12.57;;
34565;SDS011;20803;42.676;26.348;2024-02-21T02:08:58;17.10;;;12.00;;
34565;SDS011;20803;42.676;26.348;2024-02-21T02:11:24;18.60;;;12.40;;
34565;SDS011;20803;42.676;26.348;2024-02-21T02:13:49;18.03;;;11.20;;
34565;SDS011;20803;42.676;26.348;2024-02-21T02:16:15;16.27;;;11.50;;
34565;SDS011;20803;42.676;26.348;2024-02-21T02:18:40;18.50;;;11.70;;
34565;SDS011;20803;42.676;26.348;2024-02-21T02:23:53;19.03;;;11.63;;
34565;SDS011;20803;42.676;26.348;2024-02-21T02:26:19;18.70;;;12.10;;
34565;SDS011;20803;42.676;26.348;2024-02-21T02:28:44;20.33;;;12.70;;
34565;SDS011;20803;42.676;26.348;2024-02-21T02:31:10;18.93;;;12.83;;
34565;SDS011;20803;42.676;26.348;2024-02-21T02:33:36;19.70;;;13.37;;
34565;SDS011;20803;42.676;26.348;2024-02-21T02:36:01;19.63;;;12.93;;
34565;SDS011;20803;42.676;26.348;2024-02-21T02:38:27;20.83;;;12.67;;
34565;SDS011;20803;42.676;26.348;2024-02-21T02:40:52;20.40;;;13.00;;
34565;SDS011;20803;42.676;26.348;2024-02-21T02:43:18;20.27;;;12.50;;
34565;SDS011;20803;42.676;26.348;2024-02-21T02:45:43;22.67;;;13.67;;
34565;SDS011;20803;42.676;26.348;2024-02-21T02:48:09;19.67;;;12.30;;
34565;SDS011;20803;42.676;26.348;2024-02-21T02:50:34;19.10;;;12.90;;
34565;SDS011;20803;42.676;26.348;2024-02-21T02:53:00;17.80;;;12.20;;
34565;SDS011;20803;42.676;26.348;2024-02-21T02:55:25;17.67;;;11.67;;
34565;SDS011;20803;42.676;26.348;2024-02-21T02:57:51;17.57;;;12.63;;
34565;SDS011;20803;42.676;26.348;2024-02-21T03:00:17;20.17;;;12.57;;
34565;SDS011;20803;42.676;26.348;2024-02-21T03:02:43;19.37;;;12.13;;
34565;SDS011;20803;42.676;26.348;2024-02-21T03:05:14;20.73;;;12.43;;
34565;SDS011;20803;42.676;26.348;2024-02-21T03:07:44;15.93;;;11.47;;
34565;SDS011;20803;42.676;26.348;2024-02-21T03:10:10;20.53;;;13.93;;
34565;SDS011;20803;42.676;26.348;2024-02-21T03:12:36;22.60;;;13.00;;
34565;SDS011;20803;42.676;26.348;2024-02-21T03:15:03;19.90;;;12.40;;
34565;SDS011;20803;42.676;26.348;2024-02-21T03:17:29;19.77;;;12.60;;
34565;SDS011;20803;42.676;26.348;2024-02-21T03:19:55;19.37;;;11.63;;
34565;SDS011;20803;42.676;26.348;2024-02-21T03:22:21;20.67;;;12.30;;
34565;SDS011;20803;42.676;26.348;2024-02-21T03:24:49;18.37;;;12.67;;
34565;SDS011;20803;42.676;26.348;2024-02-21T03:27:15;21.17;;;12.63;;
34565;SDS011;20803;42.676;26.348;2024-02-21T03:29:40;18.83;;;12.53;;
34565;SDS011;20803;42.676;26.348;2024-02-21T03:32:06;21.43;;;12.90;;
34565;SDS011;20803;42.676;26.348;2024-02-21T03:34:31;16.90;;;11.13;;
34565;SDS011;20803;42.676;26.348;2024-02-21T03:36:56;17.83;;;12.20;;
34565;SDS011;20803;42.676;26.348;2024-02-21T03:39:22;20.07;;;11.57;;
34565;SDS011;20803;42.676;26.348;2024-02-21T03:41:48;18.40;;;11.57;;
34565;SDS011;20803;42.676;26.348;2024-02-21T03:44:13;20.10;;;11.77;;
34565;SDS011;20803;42.676;26.348;2024-02-21T03:46:39;17.47;;;11.13;;
34565;SDS011;20803;42.676;26.348;2024-02-21T03:49:05;17.33;;;11.50;;
34565;SDS011;20803;42.676;26.348;2024-02-21T03:51:30;15.20;;;11.10;;
34565;SDS011;20803;42.676;26.348;2024-02-21T03:53:56;16.27;;;11.00;;
34565;SDS011;20803;42.676;26.348;2024-02-21T03:56:21;17.83;;;11.50;;
34565;SDS011;20803;42.676;26.348;2024-02-21T03:58:47;15.80;;;11.07;;
34565;SDS011;20803;42.676;26.348;2024-02-21T04:01:14;16.20;;;11.13;;
34565;SDS011;20803;42.676;26.348;2024-02-21T04:03:40;21.73;;;12.13;;
34565;SDS011;20803;42.676;26.348;2024-02-21T04:06:06;19.17;;;12.27;;
34565;SDS011;20803;42.676;26.348;2024-02-21T04:08:31;19.60;;;12.93;;
34565;SDS011;20803;42.676;26.348;2024-02-21T04:10:57;24.53;;;12.60;;
34565;SDS011;20803;42.676;26.348;2024-02-21T04:13:22;19.57;;;11.57;;
34565;SDS011;20803;42.676;26.348;2024-02-21T04:15:48;19.67;;;12.70;;
34565;SDS011;20803;42.676;26.348;2024-02-21T04:18:13;21.77;;;13.03;;
34565;SDS011;20803;42.676;26.348;2024-02-21T04:20:40;20.67;;;12.50;;
34565;SDS011;20803;42.676;26.348;2024-02-21T04:23:05;20.37;;;12.67;;
34565;SDS011;20803;42.676;26.348;2024-02-21T04:25:31;22.57;;;14.43;;
34565;SDS011;20803;42.676;26.348;2024-02-21T04:27:56;19.83;;;13.37;;
34565;SDS011;20803;42.676;26.348;2024-02-21T04:30:22;23.67;;;15.00;;
34565;SDS011;20803;42.676;26.348;2024-02-21T04:32:48;22.57;;;13.40;;
34565;SDS011;20803;42.676;26.348;2024-02-21T04:35:13;22.40;;;14.20;;
34565;SDS011;20803;42.676;26.348;2024-02-21T04:37:39;23.47;;;14.13;;
34565;SDS011;20803;42.676;26.348;2024-02-21T04:40:05;21.80;;;14.13;;
34565;SDS011;20803;42.676;26.348;2024-02-21T04:42:31;23.10;;;13.70;;
34565;SDS011;20803;42.676;26.348;2024-02-21T04:44:56;20.33;;;14.00;;
34565;SDS011;20803;42.676;26.348;2024-02-21T04:47:22;25.97;;;14.50;;
34565;SDS011;20803;42.676;26.348;2024-02-21T04:49:51;20.83;;;13.77;;
34565;SDS011;20803;42.676;26.348;2024-02-21T04:52:17;22.80;;;13.40;;
34565;SDS011;20803;42.676;26.348;2024-02-21T04:54:42;20.43;;;13.83;;
34565;SDS011;20803;42.676;26.348;2024-02-21T04:57:08;25.23;;;14.83;;
34565;SDS011;20803;42.676;26.348;2024-02-21T04:59:35;27.20;;;15.17;;
34565;SDS011;20803;42.676;26.348;2024-02-21T05:02:01;26.17;;;15.77;;
34565;SDS011;20803;42.676;26.348;2024-02-21T05:04:26;28.00;;;17.33;;
34565;SDS011;20803;42.676;26.348;2024-02-21T05:06:52;25.77;;;16.63;;
34565;SDS011;20803;42.676;26.348;2024-02-21T05:09:17;28.40;;;17.47;;
34565;SDS011;20803;42.676;26.348;2024-02-21T05:11:43;30.03;;;18.53;;
34565;SDS011;20803;42.676;26.348;2024-02-21T05:14:08;33.40;;;19.73;;
34565;SDS011;20803;42.676;26.348;2024-02-21T05:16:34;28.20;;;16.60;;
34565;SDS011;20803;42.676;26.348;2024-02-21T05:19:00;24.00;;;14.80;;
34565;SDS011;20803;42.676;26.348;2024-02-21T05:21:25;25.97;;;16.37;;
34565;SDS011;20803;42.676;26.348;2024-02-21T05:23:53;28.73;;;17.60;;
34565;SDS011;20803;42.676;26.348;2024-02-21T05:26:23;31.50;;;17.13;;
34565;SDS011;20803;42.676;26.348;2024-02-21T05:28:50;27.80;;;17.20;;
34565;SDS011;20803;42.676;26.348;2024-02-21T05:31:20;31.07;;;19.10;;
34565;SDS011;20803;42.676;26.348;2024-02-21T05:33:48;31.30;;;19.87;;
34565;SDS011;20803;42.676;26.348;2024-02-21T05:36:15;29.60;;;19.17;;
34565;SDS011;20803;42.676;26.348;2024-02-21T05:38:40;27.57;;;18.00;;
34565;SDS011;20803;42.676;26.348;2024-02-21T05:41:06;27.37;;;17.60;;
34565;SDS011;20803;42.676;26.348;2024-02-21T05:43:31;24.83;;;17.07;;
34565;SDS011;20803;42.676;26.348;2024-02-21T05:45:57;27.03;;;17.07;;
34565;SDS011;20803;42.676;26.348;2024-02-21T05:48:23;25.70;;;16.87;;
34565;SDS011;20803;42.676;26.348;2024-02-21T05:50:49;26.33;;;16.63;;
34565;SDS011;20803;42.676;26.348;2024-02-21T05:53:15;28.30;;;16.10;;
34565;SDS011;20803;42.676;26.348;2024-02-21T05:55:41;26.13;;;16.67;;
34565;SDS011;20803;42.676;26.348;2024-02-21T05:58:06;23.23;;;16.50;;
34565;SDS011;20803;42.676;26.348;2024-02-21T06:00:35;27.17;;;17.93;;
34565;SDS011;20803;42.676;26.348;2024-02-21T06:03:00;26.67;;;17.63;;
34565;SDS011;20803;42.676;26.348;2024-02-21T06:05:27;25.33;;;18.00;;
34565;SDS011;20803;42.676;26.348;2024-02-21T06:07:53;28.00;;;18.20;;
34565;SDS011;20803;42.676;26.348;2024-02-21T06:10:18;27.97;;;18.00;;
34565;SDS011;20803;42.676;26.348;2024-02-21T06:12:44;26.03;;;19.10;;
34565;SDS011;20803;42.676;26.348;2024-02-21T06:15:09;26.23;;;17.10;;
34565;SDS011;20803;42.676;26.348;2024-02-21T06:17:35;28.00;;;19.83;;
34565;SDS011;20803;42.676;26.348;2024-02-21T06:20:00;27.63;;;18.73;;
34565;SDS011;20803;42.676;26.348;2024-02-21T06:22:26;30.13;;;18.90;;
34565;SDS011;20803;42.676;26.348;2024-02-21T06:24:51;34.00;;;19.13;;
34565;SDS011;20803;42.676;26.348;2024-02-21T06:27:19;30.23;;;19.30;;
34565;SDS011;20803;42.676;26.348;2024-02-21T06:29:44;34.03;;;22.07;;
34565;SDS011;20803;42.676;26.348;2024-02-21T06:32:10;32.03;;;23.27;;
34565;SDS011;20803;42.676;26.348;2024-02-21T06:34:35;33.43;;;22.77;;
34565;SDS011;20803;42.676;26.348;2024-02-21T06:37:01;31.30;;;22.87;;
34565;SDS011;20803;42.676;26.348;2024-02-21T06:39:27;32.93;;;23.87;;
34565;SDS011;20803;42.676;26.348;2024-02-21T06:41:54;27.43;;;20.93;;
34565;SDS011;20803;42.676;26.348;2024-02-21T06:44:19;28.10;;;20.07;;
34565;SDS011;20803;42.676;26.348;2024-02-21T06:46:46;30.17;;;20.83;;
34565;SDS011;20803;42.676;26.348;2024-02-21T06:49:12;27.67;;;19.10;;
34565;SDS011;20803;42.676;26.348;2024-02-21T06:51:41;29.87;;;20.73;;
34565;SDS011;20803;42.676;26.348;2024-02-21T06:54:09;25.73;;;19.07;;
34565;SDS011;20803;42.676;26.348;2024-02-21T06:56:35;33.80;;;19.07;;
34565;SDS011;20803;42.676;26.348;2024-02-21T06:59:01;25.03;;;18.60;;
34565;SDS011;20803;42.676;26.348;2024-02-21T07:01:28;23.87;;;18.60;;
34565;SDS011;20803;42.676;26.348;2024-02-21T07:03:54;24.60;;;17.63;;
34565;SDS011;20803;42.676;26.348;2024-02-21T07:06:20;24.33;;;18.60;;
34565;SDS011;20803;42.676;26.348;2024-02-21T07:08:45;26.97;;;19.03;;
34565;SDS011;20803;42.676;26.348;2024-02-21T07:11:11;28.73;;;20.13;;
34565;SDS011;20803;42.676;26.348;2024-02-21T07:13:36;34.60;;;21.23;;
34565;SDS011;20803;42.676;26.348;2024-02-21T07:16:02;27.97;;;18.80;;
34565;SDS011;20803;42.676;26.348;2024-02-21T07:18:27;27.53;;;18.23;;
34565;SDS011;20803;42.676;26.348;2024-02-21T07:20:53;21.90;;;15.73;;
34565;SDS011;20803;42.676;26.348;2024-02-21T07:23:19;32.37;;;20.97;;
34565;SDS011;20803;42.676;26.348;2024-02-21T07:25:44;26.43;;;19.87;;
34565;SDS011;20803;42.676;26.348;2024-02-21T07:28:10;28.03;;;22.27;;
34565;SDS011;20803;42.676;26.348;2024-02-21T07:30:35;28.47;;;21.03;;
34565;SDS011;20803;42.676;26.348;2024-02-21T07:33:01;28.90;;;18.77;;
34565;SDS011;20803;42.676;26.348;2024-02-21T07:35:27;30.63;;;20.90;;
34565;SDS011;20803;42.676;26.348;2024-02-21T07:37:53;32.87;;;21.23;;
34565;SDS011;20803;42.676;26.348;2024-02-21T07:40:18;31.83;;;22.07;;
34565;SDS011;20803;42.676;26.348;2024-02-21T07:42:44;33.87;;;22.33;;
34565;SDS011;20803;42.676;26.348;2024-02-21T07:45:10;36.93;;;24.50;;
34565;SDS011;20803;42.676;26.348;2024-02-21T07:47:36;44.53;;;30.63;;
34565;SDS011;20803;42.676;26.348;2024-02-21T07:50:02;42.93;;;29.87;;
34565;SDS011;20803;42.676;26.348;2024-02-21T07:52:28;43.73;;;32.23;;
34565;SDS011;20803;42.676;26.348;2024-02-21T07:54:54;34.43;;;25.03;;
34565;SDS011;20803;42.676;26.348;2024-02-21T07:57:19;37.43;;;22.17;;
34565;SDS011;20803;42.676;26.348;2024-02-21T07:59:45;28.43;;;19.03;;
34565;SDS011;20803;42.676;26.348;2024-02-21T08:02:13;34.80;;;18.40;;
34565;SDS011;20803;42.676;26.348;2024-02-21T08:04:39;34.97;;;19.87;;
34565;SDS011;20803;42.676;26.348;2024-02-21T08:07:04;38.07;;;19.77;;
34565;SDS011;20803;42.676;26.348;2024-02-21T08:09:30;39.30;;;22.23;;
34565;SDS011;20803;42.676;26.348;2024-02-21T08:11:56;31.77;;;20.60;;
34565;SDS011;20803;42.676;26.348;2024-02-21T08:14:21;28.27;;;19.00;;
34565;SDS011;20803;42.676;26.348;2024-02-21T08:16:47;39.00;;;22.63;;
34565;SDS011;20803;42.676;26.348;2024-02-21T08:19:13;35.37;;;20.77;;
34565;SDS011;20803;42.676;26.348;2024-02-21T08:21:39;28.90;;;19.83;;
34565;SDS011;20803;42.676;26.348;2024-02-21T08:24:04;30.70;;;20.00;;
34565;SDS011;20803;42.676;26.348;2024-02-21T08:26:30;33.67;;;21.10;;
34565;SDS011;20803;42.676;26.348;2024-02-21T08:28:56;33.03;;;21.33;;
34565;SDS011;20803;42.676;26.348;2024-02-21T08:31:26;32.17;;;21.83;;
34565;SDS011;20803;42.676;26.348;2024-02-21T08:33:59;38.33;;;23.60;;
34565;SDS011;20803;42.676;26.348;2024-02-21T08:36:31;34.43;;;23.60;;
34565;SDS011;20803;42.676;26.348;2024-02-21T08:38:58;32.13;;;19.33;;
34565;SDS011;20803;42.676;26.348;2024-02-21T08:41:24;35.00;;;21.33;;
34565;SDS011;20803;42.676;26.348;2024-02-21T08:43:50;42.37;;;23.10;;
34565;SDS011;20803;42.676;26.348;2024-02-21T08:46:19;36.60;;;23.00;;
34565;SDS011;20803;42.676;26.348;2024-02-21T08:48:46;29.60;;;21.47;;
34565;SDS011;20803;42.676;26.348;2024-02-21T08:51:15;32.20;;;20.40;;
34565;SDS011;20803;42.676;26.348;2024-02-21T08:53:40;28.33;;;21.17;;
34565;SDS011;20803;42.676;26.348;2024-02-21T08:56:06;31.27;;;20.17;;
34565;SDS011;20803;42.676;26.348;2024-02-21T08:58:39;32.17;;;21.30;;
34565;SDS011;20803;42.676;26.348;2024-02-21T09:01:05;28.27;;;20.03;;
34565;SDS011;20803;42.676;26.348;2024-02-21T09:03:32;31.13;;;20.47;;
34565;SDS011;20803;42.676;26.348;2024-02-21T09:05:59;30.37;;;20.60;;
34565;SDS011;20803;42.676;26.348;2024-02-21T09:08:25;28.30;;;20.30;;
34565;SDS011;20803;42.676;26.348;2024-02-21T09:10:51;26.33;;;19.20;;
34565;SDS011;20803;42.676;26.348;2024-02-21T09:13:17;27.20;;;20.50;;
34565;SDS011;20803;42.676;26.348;2024-02-21T09:15:43;28.70;;;21.27;;
34565;SDS011;20803;42.676;26.348;2024-02-21T09:18:09;30.07;;;21.17;;
34565;SDS011;20803;42.676;26.348;2024-02-21T09:20:34;31.37;;;21.17;;
34565;SDS011;20803;42.676;26.348;2024-02-21T09:23:00;28.63;;;20.33;;
34565;SDS011;20803;42.676;26.348;2024-02-21T09:25:25;28.50;;;19.53;;
34565;SDS011;20803;42.676;26.348;2024-02-21T09:27:51;28.33;;;19.97;;
34565;SDS011;20803;42.676;26.348;2024-02-21T09:30:18;30.87;;;20.63;;
34565;SDS011;20803;42.676;26.348;2024-02-21T09:32:44;31.03;;;19.93;;
34565;SDS011;20803;42.676;26.348;2024-02-21T09:35:10;29.27;;;20.00;;
34565;SDS011;20803;42.676;26.348;2024-02-21T09:37:35;25.87;;;18.43;;
34565;SDS011;20803;42.676;26.348;2024-02-21T09:40:01;24.90;;;18.03;;
34565;SDS011;20803;42.676;26.348;2024-02-21T09:42:39;32.57;;;20.40;;
34565;SDS011;20803;42.676;26.348;2024-02-21T09:45:22;25.23;;;17.90;;
34565;SDS011;20803;42.676;26.348;2024-02-21T09:50:36;23.63;;;17.03;;
34565;SDS011;20803;42.676;26.348;2024-02-21T09:53:05;27.07;;;17.33;;
34565;SDS011;20803;42.676;26.348;2024-02-21T09:55:34;23.20;;;16.70;;
34565;SDS011;20803;42.676;26.348;2024-02-21T09:58:01;26.23;;;17.30;;
34565;SDS011;20803;42.676;26.348;2024-02-21T10:00:28;29.43;;;17.50;;
34565;SDS011;20803;42.676;26.348;2024-02-21T10:02:54;22.00;;;15.43;;
34565;SDS011;20803;42.676;26.348;2024-02-21T10:05:19;24.73;;;16.67;;
34565;SDS011;20803;42.676;26.348;2024-02-21T10:07:45;22.27;;;15.90;;
34565;SDS011;20803;42.676;26.348;2024-02-21T10:10:11;25.30;;;17.80;;
34565;SDS011;20803;42.676;26.348;2024-02-21T10:12:36;24.60;;;17.63;;
34565;SDS011;20803;42.676;26.348;2024-02-21T10:15:13;22.57;;;16.87;;
34565;SDS011;20803;42.676;26.348;2024-02-21T10:17:39;25.90;;;17.00;;
34565;SDS011;20803;42.676;26.348;2024-02-21T10:20:08;28.57;;;18.83;;
34565;SDS011;20803;42.676;26.348;2024-02-21T10:22:37;24.90;;;17.43;;
34565;SDS011;20803;42.676;26.348;2024-02-21T10:25:11;25.53;;;18.07;;
34565;SDS011;20803;42.676;26.348;2024-02-21T10:27:38;23.23;;;16.80;;
34565;SDS011;20803;42.676;26.348;2024-02-21T10:30:05;24.83;;;17.23;;
34565;SDS011;20803;42.676;26.348;2024-02-21T10:32:32;24.17;;;16.13;;
34565;SDS011;20803;42.676;26.348;2024-02-21T10:35:01;25.07;;;17.63;;
34565;SDS011;20803;42.676;26.348;2024-02-21T10:37:29;26.00;;;18.17;;
34565;SDS011;20803;42.676;26.348;2024-02-21T10:39:55;25.27;;;18.03;;
34565;SDS011;20803;42.676;26.348;2024-02-21T10:42:21;26.90;;;19.20;;
34565;SDS011;20803;42.676;26.348;2024-02-21T10:44:48;24.77;;;16.90;;
34565;SDS011;20803;42.676;26.348;2024-02-21T10:47:17;23.90;;;17.83;;
34565;SDS011;20803;42.676;26.348;2024-02-21T10:49:46;24.90;;;17.53;;
34565;SDS011;20803;42.676;26.348;2024-02-21T10:52:27;22.37;;;16.57;;
34565;SDS011;20803;42.676;26.348;2024-02-21T10:55:09;23.43;;;16.43;;
34565;SDS011;20803;42.676;26.348;2024-02-21T10:57:39;26.70;;;17.00;;
34565;SDS011;20803;42.676;26.348;2024-02-21T11:00:06;24.70;;;17.53;;
34565;SDS011;20803;42.676;26.348;2024-02-21T11:02:35;21.03;;;16.17;;
34565;SDS011;20803;42.676;26.348;2024-02-21T11:05:01;23.97;;;17.37;;
34565;SDS011;20803;42.676;26.348;2024-02-21T11:07:29;24.93;;;17.33;;
34565;SDS011;20803;42.676;26.348;2024-02-21T11:09:57;29.07;;;18.50;;
34565;SDS011;20803;42.676;26.348;2024-02-21T11:12:24;26.03;;;17.47;;
34565;SDS011;20803;42.676;26.348;2024-02-21T11:14:51;24.30;;;18.67;;
34565;SDS011;20803;42.676;26.348;2024-02-21T11:17:17;23.13;;;17.03;;
34565;SDS011;20803;42.676;26.348;2024-02-21T11:19:43;23.93;;;16.23;;
34565;SDS011;20803;42.676;26.348;2024-02-21T11:22:15;21.83;;;16.00;;
34565;SDS011;20803;42.676;26.348;2024-02-21T11:24:42;22.47;;;15.90;;
34565;SDS011;20803;42.676;26.348;2024-02-21T11:27:08;21.43;;;15.10;;
34565;SDS011;20803;42.676;26.348;2024-02-21T11:29:43;19.67;;;15.33;;
34565;SDS011;20803;42.676;26.348;2024-02-21T11:32:10;18.03;;;13.80;;
34565;SDS011;20803;42.676;26.348;2024-02-21T11:34:39;19.33;;;13.90;;
34565;SDS011;20803;42.676;26.348;2024-02-21T11:37:13;18.47;;;12.80;;
34565;SDS011;20803;42.676;26.348;2024-02-21T11:39:42;17.50;;;12.33;;
34565;SDS011;20803;42.676;26.348;2024-02-21T11:42:08;18.87;;;12.90;;
34565;SDS011;20803;42.676;26.348;2024-02-21T11:44:35;18.50;;;13.30;;
34565;SDS011;20803;42.676;26.348;2024-02-21T11:47:05;15.90;;;12.63;;
34565;SDS011;20803;42.676;26.348;2024-02-21T11:49:36;20.03;;;12.23;;
34565;SDS011;20803;42.676;26.348;2024-02-21T11:52:04;15.23;;;11.37;;
34565;SDS011;20803;42.676;26.348;2024-02-21T11:54:30;15.83;;;12.20;;
34565;SDS011;20803;42.676;26.348;2024-02-21T11:56:56;16.67;;;11.87;;
34565;SDS011;20803;42.676;26.348;2024-02-21T11:59:21;17.10;;;12.93;;
34565;SDS011;20803;42.676;26.348;2024-02-21T12:01:50;20.60;;;13.80;;
34565;SDS011;20803;42.676;26.348;2024-02-21T12:04:21;14.93;;;12.07;;
34565;SDS011;20803;42.676;26.348;2024-02-21T12:06:49;17.07;;;12.07;;
34565;SDS011;20803;42.676;26.348;2024-02-21T12:09:18;16.43;;;12.37;;
34565;SDS011;20803;42.676;26.348;2024-02-21T12:11:44;16.37;;;12.03;;
34565;SDS011;20803;42.676;26.348;2024-02-21T12:14:15;15.30;;;11.20;;
34565;SDS011;20803;42.676;26.348;2024-02-21T12:16:41;15.37;;;12.07;;
34565;SDS011;20803;42.676;26.348;2024-02-21T12:19:09;17.40;;;11.67;;
34565;SDS011;20803;42.676;26.348;2024-02-21T12:21:36;15.83;;;11.70;;
34565;SDS011;20803;42.676;26.348;2024-02-21T12:26:48;15.23;;;11.23;;
34565;SDS011;20803;42.676;26.348;2024-02-21T12:29:13;16.17;;;10.60;;
34565;SDS011;20803;42.676;26.348;2024-02-21T12:31:39;12.80;;;10.33;;
34565;SDS011;20803;42.676;26.348;2024-02-21T12:34:05;13.37;;;10.37;;
34565;SDS011;20803;42.676;26.348;2024-02-21T12:36:31;14.33;;;9.60;;
34565;SDS011;20803;42.676;26.348;2024-02-21T12:38:58;15.90;;;10.67;;
34565;SDS011;20803;42.676;26.348;2024-02-21T12:41:24;12.93;;;10.87;;
34565;SDS011;20803;42.676;26.348;2024-02-21T12:43:52;15.47;;;11.33;;
34565;SDS011;20803;42.676;26.348;2024-02-21T12:46:18;14.97;;;10.73;;
34565;SDS011;20803;42.676;26.348;2024-02-21T12:48:43;14.17;;;10.80;;
34565;SDS011;20803;42.676;26.348;2024-02-21T12:51:09;15.60;;;11.10;;
34565;SDS011;20803;42.676;26.348;2024-02-21T12:53:34;22.53;;;11.10;;
34565;SDS011;20803;42.676;26.348;2024-02-21T12:56:00;16.30;;;11.33;;
34565;SDS011;20803;42.676;26.348;2024-02-21T12:58:25;15.07;;;12.30;;
34565;SDS011;20803;42.676;26.348;2024-02-21T13:00:51;15.03;;;11.20;;
34565;SDS011;20803;42.676;26.348;2024-02-21T13:03:17;23.67;;;12.63;;
34565;SDS011;20803;42.676;26.348;2024-02-21T13:05:42;19.63;;;12.70;;
34565;SDS011;20803;42.676;26.348;2024-02-21T13:08:11;18.10;;;11.93;;
34565;SDS011;20803;42.676;26.348;2024-02-21T13:10:37;18.17;;;12.27;;
34565;SDS011;20803;42.676;26.348;2024-02-21T13:13:03;18.37;;;12.27;;
34565;SDS011;20803;42.676;26.348;2024-02-21T13:15:28;13.80;;;11.60;;
34565;SDS011;20803;42.676;26.348;2024-02-21T13:17:55;15.03;;;10.90;;
34565;SDS011;20803;42.676;26.348;2024-02-21T13:20:22;14.77;;;11.67;;
34565;SDS011;20803;42.676;26.348;2024-02-21T13:22:47;17.50;;;12.70;;
34565;SDS011;20803;42.676;26.348;2024-02-21T13:25:13;18.50;;;12.27;;
34565;SDS011;20803;42.676;26.348;2024-02-21T13:27:43;17.07;;;12.27;;
34565;SDS011;20803;42.676;26.348;2024-02-21T13:30:09;16.83;;;12.43;;
34565;SDS011;20803;42.676;26.348;2024-02-21T13:32:35;18.27;;;12.20;;
34565;SDS011;20803;42.676;26.348;2024-02-21T13:35:00;15.53;;;11.80;;
34565;SDS011;20803;42.676;26.348;2024-02-21T13:37:26;16.13;;;12.07;;
34565;SDS011;20803;42.676;26.348;2024-02-21T13:39:53;16.07;;;11.40;;
34565;SDS011;20803;42.676;26.348;2024-02-21T13:42:19;13.23;;;10.77;;
34565;SDS011;20803;42.676;26.348;2024-02-21T13:44:45;15.03;;;11.10;;
34565;SDS011;20803;42.676;26.348;2024-02-21T13:47:11;14.03;;;10.73;;
34565;SDS011;20803;42.676;26.348;2024-02-21T13:49:39;17.50;;;11.27;;
34565;SDS011;20803;42.676;26.348;2024-02-21T13:52:04;13.93;;;11.13;;
34565;SDS011;20803;42.676;26.348;2024-02-21T13:54:30;13.47;;;10.83;;
34565;SDS011;20803;42.676;26.348;2024-02-21T13:56:56;16.53;;;12.20;;
34565;SDS011;20803;42.676;26.348;2024-02-21T13:59:21;16.90;;;10.97;;
34565;SDS011;20803;42.676;26.348;2024-02-21T14:01:47;15.00;;;11.60;;
34565;SDS011;20803;42.676;26.348;2024-02-21T14:04:12;15.73;;;11.93;;
34565;SDS011;20803;42.676;26.348;2024-02-21T14:06:38;14.07;;;11.03;;
34565;SDS011;20803;42.676;26.348;2024-02-21T14:09:08;15.43;;;11.37;;
34565;SDS011;20803;42.676;26.348;2024-02-21T14:11:34;17.90;;;12.57;;